Terminal Aerodrome Forecast
Issued by NWS

Home | Current Version | Previous Version | Text Only | Print | Product List | Glossary On
Versions: 1 2 3 4 5 6 7 8 9 10 11 12 13
000
FTUS46 KMFR 220500
TAFLMT
TAF
KLMT 220521Z 2206/2306 VRB03KT P6SM SCT100
     FM221900 18008KT P6SM BKN080
     FM230100 30010KT P6SM BKN080
     FM230400 VRB03KT P6SM SCT080 BKN200=

USA.gov is the U.S. government's official web portal to all federal, state and local government web resources and services.